Terminal Aerodrome Forecast
Issued by NWS

Home | Current Version | Previous Version | Graphics & Text | Print | Product List | Glossary On
Versions: 1 2 3 4 5 6 7 8 9 10 11 12
000
FTUS43 KMPX 172321
TAFRWF
TAF
KRWF 172321Z 1800/1824 34008KT P6SM BKN040
     FM180900 33012KT P6SM OVC045
     FM181400 32011KT P6SM SKC
     FM181800 32017G26KT P6SM SCT035=

USA.gov is the U.S. government's official web portal to all federal, state and local government web resources and services.